createdAt,value
2017-10-15T00:00:47.553Z,11.00
2017-10-15T00:03:14.985Z,12.10
2017-10-15T00:05:42.479Z,10.73
2017-10-15T00:08:09.908Z,10.93
2017-10-15T00:10:37.344Z,11.33
2017-10-15T00:13:04.853Z,10.13
2017-10-15T00:15:32.496Z,15.63
2017-10-15T00:17:59.952Z,15.97
2017-10-15T00:20:27.444Z,19.70
2017-10-15T00:22:54.992Z,13.23
2017-10-15T00:25:22.423Z,12.13
2017-10-15T00:27:49.852Z,11.50
2017-10-15T00:30:17.353Z,9.80
2017-10-15T00:32:44.795Z,11.00
2017-10-15T00:35:12.214Z,9.73
2017-10-15T00:37:39.635Z,9.30
2017-10-15T00:40:07.081Z,11.03
2017-10-15T00:42:34.631Z,9.23
2017-10-15T00:45:02.088Z,9.03
2017-10-15T00:47:29.520Z,8.67
2017-10-15T00:49:56.957Z,9.60
2017-10-15T00:52:24.368Z,12.07
2017-10-15T00:54:51.911Z,10.37
2017-10-15T00:57:19.336Z,10.17
2017-10-15T00:59:46.765Z,9.47
2017-10-15T01:02:14.284Z,8.53
2017-10-15T01:04:41.715Z,8.67
2017-10-15T01:07:09.149Z,11.40
2017-10-15T01:09:36.583Z,9.43
2017-10-15T01:12:04.022Z,10.90
2017-10-15T01:14:31.439Z,9.40
2017-10-15T01:16:58.961Z,8.60
2017-10-15T01:19:26.387Z,9.80
2017-10-15T01:21:53.814Z,8.60
2017-10-15T01:24:21.405Z,11.97
2017-10-15T01:26:48.839Z,8.50
2017-10-15T01:29:16.246Z,8.70
2017-10-15T01:31:43.707Z,9.97
2017-10-15T01:34:11.112Z,7.00
2017-10-15T01:36:38.540Z,8.73
2017-10-15T01:39:06.124Z,8.63
2017-10-15T01:41:33.805Z,8.00
2017-10-15T01:44:01.224Z,7.30
2017-10-15T01:46:28.816Z,7.23
2017-10-15T01:48:56.246Z,7.80
2017-10-15T01:51:23.725Z,6.83
2017-10-15T01:53:51.148Z,8.00
2017-10-15T01:56:18.581Z,6.90
2017-10-15T01:58:46.080Z,7.30
2017-10-15T02:01:13.552Z,7.80
2017-10-15T02:03:40.992Z,6.73
2017-10-15T02:06:08.461Z,7.90
2017-10-15T02:08:36.085Z,6.63
2017-10-15T02:11:03.586Z,8.43
2017-10-15T02:13:31.129Z,7.77
2017-10-15T02:15:58.568Z,6.77
2017-10-15T02:18:26.045Z,7.83
2017-10-15T02:20:53.504Z,6.67
2017-10-15T02:23:20.960Z,11.33
2017-10-15T02:25:48.622Z,5.83
2017-10-15T02:28:16.186Z,6.17
2017-10-15T02:30:43.614Z,6.27
2017-10-15T02:33:11.036Z,6.83
2017-10-15T02:35:38.541Z,5.83
2017-10-15T02:38:05.976Z,6.33
2017-10-15T02:40:33.409Z,8.37
2017-10-15T02:43:00.834Z,8.13
2017-10-15T02:45:28.283Z,6.17
2017-10-15T02:47:55.695Z,6.80
2017-10-15T02:50:23.196Z,6.23
2017-10-15T02:52:50.649Z,5.63
2017-10-15T02:55:18.099Z,5.87
2017-10-15T02:57:45.556Z,7.10
2017-10-15T03:00:13.109Z,6.57
2017-10-15T03:02:40.527Z,7.00
2017-10-15T03:05:07.952Z,6.57
2017-10-15T03:07:35.474Z,7.37
2017-10-15T03:10:02.936Z,7.43
2017-10-15T03:12:30.364Z,7.00
2017-10-15T03:14:57.784Z,7.07
2017-10-15T03:17:26.104Z,7.07
2017-10-15T03:19:53.551Z,7.37
2017-10-15T03:22:20.975Z,6.47
2017-10-15T03:24:48.558Z,6.77
2017-10-15T03:27:16.048Z,6.70
2017-10-15T03:29:43.451Z,6.40
2017-10-15T03:32:10.885Z,6.23
2017-10-15T03:34:38.312Z,6.73
2017-10-15T03:37:05.751Z,7.33
2017-10-15T03:39:33.236Z,7.37
2017-10-15T03:42:00.692Z,7.60
2017-10-15T03:44:28.243Z,6.63
2017-10-15T03:46:56.625Z,8.53
2017-10-15T03:49:24.080Z,8.60
2017-10-15T03:51:51.507Z,8.30
2017-10-15T03:54:18.991Z,8.40
2017-10-15T03:56:46.721Z,8.73
2017-10-15T03:59:14.210Z,7.60
2017-10-15T04:01:41.671Z,7.50
2017-10-15T04:04:09.103Z,8.30
2017-10-15T04:06:36.527Z,8.30
2017-10-15T04:09:03.943Z,7.70
2017-10-15T04:11:31.386Z,8.53
2017-10-15T04:13:58.851Z,8.70
2017-10-15T04:16:26.319Z,7.43
2017-10-15T04:18:53.755Z,6.93
2017-10-15T04:21:21.189Z,7.47
2017-10-15T04:23:48.771Z,7.43
2017-10-15T04:26:16.475Z,7.33
2017-10-15T04:28:43.907Z,6.33
2017-10-15T04:31:11.373Z,6.20
2017-10-15T04:33:38.799Z,12.70
2017-10-15T04:36:06.365Z,6.87
2017-10-15T04:38:34.001Z,6.50
2017-10-15T04:41:01.600Z,7.10
2017-10-15T04:43:29.213Z,7.10
2017-10-15T04:45:56.800Z,5.87
2017-10-15T04:48:24.256Z,7.27
2017-10-15T04:50:51.715Z,6.37
2017-10-15T04:53:19.368Z,5.87
2017-10-15T04:55:46.946Z,5.50
2017-10-15T04:58:14.567Z,6.57
2017-10-15T05:00:42.012Z,6.43
2017-10-15T05:03:10.320Z,6.63
2017-10-15T05:05:37.887Z,7.33
2017-10-15T05:08:05.445Z,6.00
2017-10-15T05:10:32.897Z,6.47
2017-10-15T05:13:00.323Z,6.63
2017-10-15T05:15:27.743Z,5.80
2017-10-15T05:17:55.186Z,6.50
2017-10-15T05:20:22.596Z,7.47
2017-10-15T05:22:50.172Z,7.27
2017-10-15T05:25:17.596Z,7.90
2017-10-15T05:27:45.093Z,8.60
2017-10-15T05:30:12.734Z,10.87
2017-10-15T05:32:40.208Z,11.43
2017-10-15T05:35:07.678Z,12.90
2017-10-15T05:37:35.118Z,11.57
2017-10-15T05:40:02.660Z,10.60
2017-10-15T05:42:30.083Z,15.10
2017-10-15T05:44:57.517Z,11.63
2017-10-15T05:47:25.047Z,15.17
2017-10-15T05:49:52.508Z,18.80
2017-10-15T05:52:19.965Z,16.00
2017-10-15T05:54:47.425Z,20.53
2017-10-15T05:57:14.876Z,29.63
2017-10-15T05:59:42.516Z,28.63
2017-10-15T06:02:10.093Z,15.37
2017-10-15T06:04:37.527Z,22.10
2017-10-15T06:07:04.967Z,19.50
2017-10-15T06:09:32.384Z,30.30
2017-10-15T06:11:59.831Z,17.13
2017-10-15T06:14:27.282Z,18.97
2017-10-15T06:16:54.719Z,18.53
2017-10-15T06:19:22.205Z,19.07
2017-10-15T06:21:49.637Z,20.60
2017-10-15T06:24:17.141Z,21.10
2017-10-15T06:26:44.581Z,16.23
2017-10-15T06:29:12.117Z,18.23
2017-10-15T06:31:39.573Z,23.83
2017-10-15T06:34:07.215Z,24.33
2017-10-15T06:36:34.665Z,44.40
2017-10-15T06:39:02.164Z,15.60
2017-10-15T06:41:29.583Z,21.37
2017-10-15T06:43:57.160Z,21.50
2017-10-15T06:46:24.588Z,22.47
2017-10-15T06:48:52.077Z,20.40
2017-10-15T06:51:19.512Z,16.70
2017-10-15T06:53:46.939Z,22.00
2017-10-15T06:56:14.369Z,17.87
2017-10-15T06:58:41.816Z,24.60
2017-10-15T07:01:09.318Z,21.97
2017-10-15T07:03:36.751Z,29.60
2017-10-15T07:06:04.192Z,27.20
2017-10-15T07:08:31.728Z,25.03
2017-10-15T07:10:59.491Z,21.37
2017-10-15T07:13:27.735Z,30.80
2017-10-15T07:15:55.217Z,21.83
2017-10-15T07:18:23.135Z,26.93
2017-10-15T07:20:50.849Z,22.93
2017-10-15T07:23:18.292Z,21.70
2017-10-15T07:25:45.778Z,17.07
2017-10-15T07:28:13.745Z,21.80
2017-10-15T07:30:42.607Z,35.23
2017-10-15T07:33:10.049Z,25.87
2017-10-15T07:35:37.740Z,21.23
2017-10-15T07:38:05.185Z,16.13
2017-10-15T07:40:32.628Z,27.33
2017-10-15T07:43:00.304Z,16.37
2017-10-15T07:45:27.864Z,17.43
2017-10-15T07:47:55.556Z,14.00
2017-10-15T07:50:23.016Z,16.97
2017-10-15T07:52:50.464Z,13.03
2017-10-15T07:55:17.899Z,21.43
2017-10-15T07:57:45.340Z,18.77
2017-10-15T08:00:12.918Z,22.40
2017-10-15T08:02:40.546Z,22.93
2017-10-15T08:05:08.013Z,15.23
2017-10-15T08:07:35.434Z,21.70
2017-10-15T08:10:03.846Z,18.27
2017-10-15T08:12:31.418Z,23.23
2017-10-15T08:14:59.063Z,25.33
2017-10-15T08:17:26.657Z,23.47
2017-10-15T08:19:54.317Z,20.83
2017-10-15T08:22:21.869Z,26.23
2017-10-15T08:24:49.321Z,26.83
2017-10-15T08:27:16.903Z,27.60
2017-10-15T08:29:44.356Z,25.30
2017-10-15T08:32:12.001Z,33.67
2017-10-15T08:34:39.469Z,20.90
2017-10-15T08:37:06.887Z,29.60
2017-10-15T08:39:34.358Z,23.60
2017-10-15T08:42:01.793Z,24.60
2017-10-15T08:44:29.240Z,31.83
2017-10-15T08:46:56.655Z,32.67
2017-10-15T08:49:24.103Z,26.30
2017-10-15T08:51:51.547Z,28.40
2017-10-15T08:54:19.021Z,31.50
2017-10-15T08:56:46.457Z,28.70
2017-10-15T08:59:13.934Z,38.90
2017-10-15T09:01:41.364Z,26.37
2017-10-15T09:04:08.931Z,25.23
2017-10-15T09:06:36.365Z,25.43
2017-10-15T09:09:03.844Z,23.00
2017-10-15T09:11:31.301Z,20.53
2017-10-15T09:13:58.745Z,22.43
2017-10-15T09:16:26.181Z,21.70
2017-10-15T09:18:53.620Z,23.00
2017-10-15T09:21:21.085Z,22.83
2017-10-15T09:23:48.588Z,22.40
2017-10-15T09:26:16.025Z,24.83
2017-10-15T09:28:43.492Z,25.00
2017-10-15T09:31:10.977Z,24.60
2017-10-15T09:33:38.611Z,32.47
2017-10-15T09:36:06.052Z,26.20
2017-10-15T09:38:33.534Z,28.27
2017-10-15T09:41:01.063Z,27.60
2017-10-15T09:43:28.493Z,38.73
2017-10-15T09:45:55.989Z,28.53
2017-10-15T09:48:23.634Z,31.80
2017-10-15T09:50:51.059Z,32.40
2017-10-15T09:53:19.247Z,29.30
2017-10-15T09:55:46.710Z,30.03
2017-10-15T09:58:14.144Z,31.10
2017-10-15T10:00:41.607Z,39.00
2017-10-15T10:03:09.104Z,32.67
2017-10-15T10:05:36.531Z,32.57
2017-10-15T10:08:04.008Z,31.97
2017-10-15T10:10:31.474Z,29.50
2017-10-15T10:12:58.899Z,38.80
2017-10-15T10:15:26.344Z,36.87
2017-10-15T10:17:53.832Z,38.00
2017-10-15T10:20:21.367Z,39.97
2017-10-15T10:22:48.935Z,40.87
2017-10-15T10:25:16.427Z,39.37
2017-10-15T10:27:44.483Z,41.63
2017-10-15T10:30:12.048Z,41.17
2017-10-15T10:32:39.598Z,43.60
2017-10-15T10:35:07.149Z,37.60
2017-10-15T10:37:34.664Z,41.47
2017-10-15T10:40:02.177Z,36.23
2017-10-15T10:42:29.636Z,40.07
2017-10-15T10:44:57.280Z,42.90
2017-10-15T10:47:24.751Z,47.67
2017-10-15T10:49:52.328Z,39.63
2017-10-15T10:52:19.738Z,38.73
2017-10-15T10:54:47.170Z,38.77
2017-10-15T10:57:14.590Z,41.73
2017-10-15T10:59:42.142Z,36.50
2017-10-15T11:02:09.592Z,36.60
2017-10-15T11:04:37.056Z,34.47
2017-10-15T11:07:04.485Z,40.80
2017-10-15T11:09:31.922Z,36.67
2017-10-15T11:11:59.339Z,35.30
2017-10-15T11:14:26.779Z,34.77
2017-10-15T11:16:54.209Z,36.90
2017-10-15T11:19:21.655Z,35.17
2017-10-15T11:21:49.135Z,31.80
2017-10-15T11:24:16.688Z,32.50
2017-10-15T11:26:44.112Z,35.30
2017-10-15T11:29:11.600Z,31.80
2017-10-15T11:31:39.069Z,32.83
2017-10-15T11:34:06.516Z,30.13
2017-10-15T11:36:33.955Z,33.97
2017-10-15T11:39:01.431Z,35.70
2017-10-15T11:41:28.864Z,28.13
2017-10-15T11:43:56.287Z,32.50
2017-10-15T11:46:23.724Z,32.80
2017-10-15T11:48:51.248Z,28.03
2017-10-15T11:51:18.689Z,30.47
2017-10-15T11:53:46.167Z,30.67
2017-10-15T11:56:13.622Z,38.57
2017-10-15T11:58:41.043Z,28.43
2017-10-15T12:01:08.541Z,28.90
2017-10-15T12:03:35.965Z,28.70
2017-10-15T12:06:03.462Z,28.00
2017-10-15T12:08:31.221Z,27.53
2017-10-15T12:10:58.659Z,26.80
2017-10-15T12:13:26.309Z,28.07
2017-10-15T12:15:53.787Z,25.60
2017-10-15T12:18:21.505Z,28.43
2017-10-15T12:20:49.703Z,24.47
2017-10-15T12:23:17.177Z,23.33
2017-10-15T12:25:44.639Z,26.70
2017-10-15T12:28:12.073Z,23.90
2017-10-15T12:30:39.545Z,25.60
2017-10-15T12:33:07.008Z,22.67
2017-10-15T12:35:34.652Z,21.93
2017-10-15T12:38:02.139Z,22.57
2017-10-15T12:40:29.624Z,26.10
2017-10-15T12:42:57.040Z,22.43
2017-10-15T12:45:24.472Z,20.67
2017-10-15T12:47:51.962Z,21.33
2017-10-15T12:50:19.512Z,19.97
2017-10-15T12:52:46.932Z,19.03
2017-10-15T12:55:14.363Z,22.80
2017-10-15T12:57:42.557Z,20.73
2017-10-15T13:00:10.171Z,19.87
2017-10-15T13:02:37.593Z,16.07
2017-10-15T13:05:05.043Z,18.70
2017-10-15T13:07:32.472Z,18.03
2017-10-15T13:10:01.402Z,19.40
2017-10-15T13:12:29.756Z,19.33
2017-10-15T13:14:57.187Z,17.20
2017-10-15T13:17:24.621Z,18.90
2017-10-15T13:19:52.817Z,18.10
2017-10-15T13:22:20.380Z,17.63
2017-10-15T13:24:47.800Z,18.30
2017-10-15T13:27:15.231Z,17.93
2017-10-15T13:29:42.647Z,19.47
2017-10-15T13:32:10.852Z,18.73
2017-10-15T13:34:38.281Z,18.70
2017-10-15T13:37:05.712Z,17.90
2017-10-15T13:39:33.145Z,18.07
2017-10-15T13:42:00.584Z,19.27
2017-10-15T13:44:27.995Z,21.03
2017-10-15T13:46:55.432Z,17.43
2017-10-15T13:49:22.869Z,17.17
2017-10-15T13:51:50.468Z,17.73
2017-10-15T13:54:17.902Z,18.27
2017-10-15T13:56:45.332Z,19.67
2017-10-15T13:59:12.751Z,16.70
2017-10-15T14:01:40.957Z,17.90
2017-10-15T14:04:08.378Z,18.70
2017-10-15T14:06:35.804Z,17.83
2017-10-15T14:09:03.225Z,17.10
2017-10-15T14:11:30.659Z,17.13
2017-10-15T14:13:58.085Z,16.90
2017-10-15T14:16:25.523Z,17.63
2017-10-15T14:18:53.164Z,17.53
2017-10-15T14:21:20.617Z,17.70
2017-10-15T14:23:48.046Z,17.77
2017-10-15T14:26:15.490Z,18.23
2017-10-15T14:28:42.911Z,16.03
2017-10-15T14:31:10.339Z,16.63
2017-10-15T14:33:37.832Z,18.40
2017-10-15T14:36:05.272Z,17.40
2017-10-15T14:38:32.743Z,18.90
2017-10-15T14:41:00.175Z,16.43
2017-10-15T14:43:27.601Z,17.23
2017-10-15T14:45:55.060Z,16.85
2017-10-15T14:48:22.485Z,16.13
2017-10-15T14:50:50.679Z,18.40
2017-10-15T14:53:18.099Z,16.50
2017-10-15T14:55:45.555Z,16.63
2017-10-15T14:58:12.979Z,16.53
2017-10-15T15:00:40.424Z,17.20
2017-10-15T15:03:07.916Z,17.60
2017-10-15T15:05:35.346Z,15.47
2017-10-15T15:08:02.789Z,15.77
2017-10-15T15:10:30.220Z,16.47
2017-10-15T15:12:58.418Z,17.03
2017-10-15T15:15:25.835Z,14.80
2017-10-15T15:17:53.263Z,15.80
2017-10-15T15:20:20.680Z,14.90
2017-10-15T15:22:48.111Z,14.93
2017-10-15T15:25:16.329Z,13.37
2017-10-15T15:27:43.774Z,13.23
2017-10-15T15:30:11.244Z,13.23
2017-10-15T15:32:38.738Z,11.50
2017-10-15T15:35:06.169Z,10.57
2017-10-15T15:37:33.602Z,10.70
2017-10-15T15:40:01.063Z,10.13
2017-10-15T15:42:28.507Z,10.80
2017-10-15T15:44:55.923Z,9.93
2017-10-15T15:47:23.356Z,8.73
2017-10-15T15:49:50.876Z,10.50
2017-10-15T15:52:18.395Z,11.20
2017-10-15T15:54:46.094Z,9.70
2017-10-15T15:57:13.519Z,10.73
2017-10-15T15:59:41.017Z,10.77
2017-10-15T16:02:08.450Z,9.97
2017-10-15T16:04:35.921Z,9.00
2017-10-15T16:07:03.361Z,9.60
2017-10-15T16:09:30.779Z,10.23
2017-10-15T16:11:58.205Z,8.77
2017-10-15T16:14:25.652Z,9.10
2017-10-15T16:16:53.200Z,9.83
2017-10-15T16:19:20.624Z,10.60
2017-10-15T16:21:48.055Z,10.70
2017-10-15T16:24:15.507Z,10.27
2017-10-15T16:26:42.952Z,10.87
2017-10-15T16:29:10.393Z,10.63
2017-10-15T16:31:37.864Z,10.30
2017-10-15T16:34:05.279Z,19.23
2017-10-15T16:36:32.855Z,12.00
2017-10-15T16:39:00.310Z,11.10
2017-10-15T16:41:27.772Z,11.45
2017-10-15T16:43:55.536Z,12.97
2017-10-15T16:46:23.300Z,13.03
2017-10-15T16:48:50.740Z,11.80
2017-10-15T16:51:18.178Z,12.60
2017-10-15T16:53:45.617Z,12.07
2017-10-15T16:56:13.812Z,10.53
2017-10-15T16:58:41.249Z,11.73
2017-10-15T17:01:08.673Z,10.30
2017-10-15T17:03:36.291Z,14.50
2017-10-15T17:06:03.805Z,11.90
2017-10-15T17:08:31.249Z,13.27
2017-10-15T17:10:58.782Z,12.63
2017-10-15T17:13:26.212Z,12.97
2017-10-15T17:15:53.628Z,14.80
2017-10-15T17:18:21.140Z,22.57
2017-10-15T17:20:48.588Z,16.43
2017-10-15T17:23:16.030Z,16.50
2017-10-15T17:25:43.449Z,16.23
2017-10-15T17:28:10.882Z,16.93
2017-10-15T17:30:38.341Z,16.17
2017-10-15T17:33:05.888Z,15.57
2017-10-15T17:35:33.307Z,17.60
2017-10-15T17:38:00.740Z,20.83
2017-10-15T17:40:28.217Z,19.07
2017-10-15T17:46:58.319Z,17.43
2017-10-15T17:49:25.860Z,20.30
2017-10-15T17:51:53.619Z,18.67
2017-10-15T17:54:21.060Z,16.93
2017-10-15T17:56:48.519Z,17.43
2017-10-15T17:59:15.944Z,18.00
2017-10-15T18:01:43.384Z,18.53
2017-10-15T18:04:10.898Z,17.13
2017-10-15T18:06:38.335Z,16.27
2017-10-15T18:09:05.809Z,14.70
2017-10-15T18:11:33.237Z,16.23
2017-10-15T18:14:00.683Z,17.33
2017-10-15T18:16:28.100Z,17.23
2017-10-15T18:18:55.547Z,16.63
2017-10-15T18:21:23.112Z,18.40
2017-10-15T18:23:50.550Z,16.87
2017-10-15T18:26:18.020Z,16.13
2017-10-15T18:28:45.460Z,17.50
2017-10-15T18:31:12.880Z,17.10
2017-10-15T18:33:40.371Z,18.93
2017-10-15T18:36:07.800Z,18.60
2017-10-15T18:38:35.239Z,18.27
2017-10-15T18:41:02.754Z,19.40
2017-10-15T18:43:30.225Z,16.27
2017-10-15T18:45:57.639Z,18.10
2017-10-15T18:48:25.092Z,16.40
2017-10-15T18:50:52.521Z,15.13
2017-10-15T18:53:19.989Z,16.00
2017-10-15T18:55:47.485Z,16.00
2017-10-15T18:58:14.947Z,18.10
2017-10-15T19:00:42.376Z,16.73
2017-10-15T19:03:09.811Z,18.17
2017-10-15T19:05:37.241Z,16.77
2017-10-15T19:08:04.684Z,14.50
2017-10-15T19:10:32.123Z,14.70
2017-10-15T19:12:59.556Z,13.30
2017-10-15T19:15:27.004Z,16.20
2017-10-15T19:17:54.432Z,15.10
2017-10-15T19:20:21.955Z,16.20
2017-10-15T19:22:49.414Z,14.63
2017-10-15T19:25:16.965Z,14.43
2017-10-15T19:32:12.893Z,13.37
2017-10-15T19:34:40.319Z,15.20
2017-10-15T19:37:07.748Z,15.53
2017-10-15T19:39:35.185Z,15.37
2017-10-15T19:42:02.628Z,14.77
2017-10-15T19:44:30.095Z,13.73
2017-10-15T19:46:58.445Z,15.20
2017-10-15T19:49:25.871Z,14.80
2017-10-15T19:51:54.267Z,15.60
2017-10-15T19:54:23.661Z,16.57
2017-10-15T19:56:51.104Z,15.73
2017-10-15T19:59:18.549Z,15.77
2017-10-15T20:01:46.891Z,14.30
2017-10-15T20:04:14.459Z,13.93
2017-10-15T20:06:42.214Z,14.73
2017-10-15T20:09:09.868Z,13.20
2017-10-15T20:11:37.399Z,12.83
2017-10-15T20:14:04.849Z,13.17
2017-10-15T20:16:32.259Z,14.53
2017-10-15T20:18:59.703Z,13.80
2017-10-15T20:21:27.129Z,15.27
2017-10-15T20:23:54.655Z,17.57
2017-10-15T20:26:22.169Z,14.57
2017-10-15T20:28:49.803Z,12.97
2017-10-15T20:31:17.389Z,15.80
2017-10-15T20:33:45.148Z,14.10
2017-10-15T20:36:12.568Z,14.23
2017-10-15T20:38:40.004Z,13.37
2017-10-15T20:41:07.520Z,13.20
2017-10-15T20:43:34.978Z,15.20
2017-10-15T20:46:02.752Z,16.30
2017-10-15T20:48:30.196Z,14.57
2017-10-15T20:50:57.841Z,16.73
2017-10-15T20:53:25.412Z,17.77
2017-10-15T20:55:53.051Z,19.00
2017-10-15T20:58:20.508Z,16.80
2017-10-15T21:00:48.000Z,18.20
2017-10-15T21:03:15.432Z,16.80
2017-10-15T21:05:43.005Z,16.83
2017-10-15T21:08:10.451Z,15.40
2017-10-15T21:10:37.936Z,16.77
2017-10-15T21:13:05.671Z,14.97
2017-10-15T21:15:33.113Z,14.97
2017-10-15T21:18:00.532Z,14.33
2017-10-15T21:20:27.974Z,14.70
2017-10-15T21:22:55.398Z,15.97
2017-10-15T21:25:22.964Z,16.03
2017-10-15T21:27:50.415Z,14.90
2017-10-15T21:30:17.869Z,15.93
2017-10-15T21:32:45.298Z,13.67
2017-10-15T21:35:12.736Z,15.13
2017-10-15T21:37:40.169Z,15.43
2017-10-15T21:40:07.619Z,15.60
2017-10-15T21:42:35.043Z,14.50
2017-10-15T21:45:02.617Z,17.10
2017-10-15T21:47:30.247Z,16.23
2017-10-15T21:49:57.772Z,15.90
2017-10-15T21:52:25.284Z,17.60
2017-10-15T21:54:52.927Z,19.47
2017-10-15T21:57:20.351Z,18.93
2017-10-15T21:59:48.557Z,20.30
2017-10-15T22:02:16.037Z,18.30
2017-10-15T22:04:43.487Z,16.53
2017-10-15T22:07:10.943Z,24.10
2017-10-15T22:09:38.713Z,20.37
2017-10-15T22:12:06.469Z,20.97
2017-10-15T22:14:33.892Z,19.13
2017-10-15T22:17:01.332Z,19.57
2017-10-15T22:19:28.769Z,21.50
2017-10-15T22:22:01.931Z,20.63
2017-10-15T22:24:29.507Z,19.13
2017-10-15T22:26:57.039Z,17.77
2017-10-15T22:29:24.473Z,19.23
2017-10-15T22:31:51.959Z,21.80
2017-10-15T22:34:19.412Z,16.60
2017-10-15T22:36:46.868Z,15.30
2017-10-15T22:39:14.327Z,16.97
2017-10-15T22:41:41.760Z,16.70
2017-10-15T22:44:09.237Z,17.40
2017-10-15T22:46:36.672Z,18.90
2017-10-15T22:49:04.113Z,16.87
2017-10-15T22:51:31.617Z,16.20
2017-10-15T22:53:59.053Z,16.10
2017-10-15T22:56:26.518Z,15.03
2017-10-15T22:58:53.948Z,17.03
2017-10-15T23:01:21.389Z,17.20
2017-10-15T23:03:48.811Z,16.60
2017-10-15T23:06:16.269Z,16.20
2017-10-15T23:08:43.796Z,16.63
2017-10-15T23:11:11.236Z,17.17
2017-10-15T23:13:38.669Z,16.57
2017-10-15T23:16:06.100Z,16.07
2017-10-15T23:18:33.538Z,15.47
2017-10-15T23:21:01.081Z,13.87
2017-10-15T23:23:28.520Z,14.80
2017-10-15T23:25:55.947Z,12.80
2017-10-15T23:28:23.376Z,13.83
2017-10-15T23:30:50.829Z,13.57
2017-10-15T23:33:18.287Z,13.20
2017-10-15T23:35:45.732Z,13.87
2017-10-15T23:38:13.272Z,13.90
2017-10-15T23:40:40.736Z,14.23
2017-10-15T23:43:08.191Z,13.77
2017-10-15T23:45:35.643Z,14.13
2017-10-15T23:48:03.100Z,13.23
2017-10-15T23:50:30.541Z,13.03
2017-10-15T23:52:58.016Z,12.20
2017-10-15T23:55:25.654Z,13.40
2017-10-15T23:57:53.150Z,11.93
